Kota Kinabalu, Malaysia
Current Conditions -  °F | °C
As of 6:30 AM on Sunday 26 Oct 2014 (Local Time) from WBKK Reporting Station
Thunderstorm Thunderstorm  
Wind Chill: 79°   Ceiling: 27000
Heat Index: 82°   Visibility: 6mi
Dew Point: 75°   Wind: 3mph
Humidity: 89%   Direction: 130°SE
Pressure: 29.85"   Gusts: NA
Location:  5.97°N, 116.07°E
Report Text: WBKK 252230Z 13003KT 9999 TS FEW014 FEW016CB SCT140 BKN270 26/24 Q1011 NOSIG
Loading
Personal Weather Stations






























Interactive Weather Map
Tropical Storm Tracking
New forecast layout! Learn more

10-Day Weather Forecast

Advertisements
Track Severe Weather on mobile